createdAt,value
2022-11-26T00:01:17.606Z,6.90
2022-11-26T00:03:45.770Z,6.79
2022-11-26T00:06:32.181Z,6.79
2022-11-26T00:09:00.755Z,6.73
2022-11-26T00:11:28.115Z,6.78
2022-11-26T00:13:55.450Z,6.51
2022-11-26T00:16:23.327Z,6.44
2022-11-26T00:18:50.740Z,6.49
2022-11-26T00:21:22.438Z,6.59
2022-11-26T00:23:50.780Z,6.72
2022-11-26T00:26:21.313Z,6.64
2022-11-26T00:28:51.578Z,6.73
2022-11-26T00:31:19.346Z,6.79
2022-11-26T00:33:47.197Z,6.65
2022-11-26T00:36:21.829Z,6.70
2022-11-26T00:38:55.142Z,6.75
2022-11-26T00:41:24.920Z,6.66
2022-11-26T00:43:52.558Z,6.56
2022-11-26T00:46:21.111Z,6.59
2022-11-26T00:48:48.759Z,6.69
2022-11-26T00:51:25.111Z,6.58
2022-11-26T00:53:56.701Z,6.73
2022-11-26T00:56:24.260Z,6.65
2022-11-26T00:58:51.574Z,6.56
2022-11-26T01:01:23.754Z,6.49
2022-11-26T01:03:51.545Z,6.56
2022-11-26T01:06:26.550Z,6.71
2022-11-26T01:08:54.157Z,6.74
2022-11-26T01:11:22.736Z,6.89
2022-11-26T01:13:51.370Z,6.89
2022-11-26T01:16:30.944Z,6.64
2022-11-26T01:18:59.600Z,6.76
2022-11-26T01:21:30.380Z,6.64
2022-11-26T01:23:57.730Z,6.73
2022-11-26T01:26:31.883Z,6.72
2022-11-26T01:28:59.441Z,6.80
2022-11-26T01:31:28.450Z,6.76
2022-11-26T01:33:56.245Z,6.88
2022-11-26T01:36:33.885Z,6.81
2022-11-26T01:39:22.495Z,6.74
2022-11-26T01:41:58.983Z,6.86
2022-11-26T01:44:29.159Z,7.00
2022-11-26T01:46:57.706Z,6.91
2022-11-26T01:49:28.273Z,7.09
2022-11-26T01:52:34.142Z,6.90
2022-11-26T01:55:01.734Z,6.83
2022-11-26T01:57:29.913Z,6.94
2022-11-26T02:00:01.474Z,6.99
2022-11-26T02:02:29.155Z,6.94
2022-11-26T02:05:09.504Z,7.01
2022-11-26T02:07:37.040Z,7.07
2022-11-26T02:10:04.963Z,7.14
2022-11-26T02:12:32.513Z,7.12
2022-11-26T02:14:59.874Z,7.12
2022-11-26T02:17:41.874Z,7.00
2022-11-26T02:20:24.396Z,6.98
2022-11-26T02:22:54.876Z,7.00
2022-11-26T02:25:40.426Z,6.89
2022-11-26T02:28:49.750Z,7.13
2022-11-26T02:31:47.971Z,7.00
2022-11-26T02:34:23.571Z,7.02
2022-11-26T02:36:57.749Z,7.00
2022-11-26T02:39:27.145Z,6.97
2022-11-26T02:42:00.073Z,7.06
2022-11-26T02:44:46.299Z,7.11
2022-11-26T02:47:16.751Z,7.08
2022-11-26T02:49:46.312Z,7.06
2022-11-26T02:52:14.241Z,7.08
2022-11-26T02:54:42.745Z,6.91
2022-11-26T02:57:14.054Z,7.17
2022-11-26T02:59:42.154Z,7.12
2022-11-26T03:02:14.856Z,6.77
2022-11-26T03:04:43.403Z,6.69
2022-11-26T03:07:13.044Z,6.89
2022-11-26T03:09:56.245Z,6.87
2022-11-26T03:12:24.283Z,6.93
2022-11-26T03:14:51.955Z,6.91
2022-11-26T03:17:19.328Z,6.97
2022-11-26T03:19:47.396Z,6.96
2022-11-26T03:22:15.658Z,6.98
2022-11-26T03:24:43.095Z,7.01
2022-11-26T03:27:10.860Z,6.96
2022-11-26T03:29:38.285Z,6.86
2022-11-26T03:32:05.811Z,6.95
2022-11-26T03:34:33.470Z,6.99
2022-11-26T03:37:00.760Z,6.92
2022-11-26T03:39:28.106Z,7.15
2022-11-26T03:41:55.756Z,7.19
2022-11-26T03:44:23.069Z,7.24
2022-11-26T03:46:50.443Z,7.04
2022-11-26T03:49:18.033Z,7.16
2022-11-26T03:51:45.381Z,7.22
2022-11-26T03:54:12.675Z,7.07
2022-11-26T03:56:40.258Z,7.15
2022-11-26T03:59:07.680Z,7.20
2022-11-26T04:01:35.292Z,7.35
2022-11-26T04:04:03.058Z,7.33
2022-11-26T04:06:30.430Z,7.25
2022-11-26T04:08:57.766Z,7.26
2022-11-26T04:11:25.395Z,7.20
2022-11-26T04:13:52.750Z,7.15
2022-11-26T04:16:20.936Z,6.95
2022-11-26T04:18:48.514Z,7.10
2022-11-26T04:21:15.863Z,7.05
2022-11-26T04:23:43.211Z,7.07
2022-11-26T04:26:10.795Z,7.09
2022-11-26T04:28:38.106Z,7.03
2022-11-26T04:31:05.728Z,7.08
2022-11-26T04:33:33.403Z,7.14
2022-11-26T04:36:01.135Z,7.28
2022-11-26T04:38:28.422Z,7.23
2022-11-26T04:40:56.095Z,7.00
2022-11-26T04:43:23.402Z,7.16
2022-11-26T04:45:50.787Z,7.06
2022-11-26T04:48:18.731Z,7.23
2022-11-26T04:50:46.146Z,7.13
2022-11-26T04:53:13.487Z,7.11
2022-11-26T04:55:41.079Z,7.05
2022-11-26T04:58:08.392Z,6.83
2022-11-26T05:00:35.814Z,6.93
2022-11-26T05:03:03.493Z,7.07
2022-11-26T05:05:30.878Z,7.04
2022-11-26T05:07:58.230Z,7.13
2022-11-26T05:10:25.883Z,6.92
2022-11-26T05:12:53.218Z,6.91
2022-11-26T05:15:20.564Z,7.03
2022-11-26T05:17:48.256Z,7.02
2022-11-26T05:20:15.622Z,6.98
2022-11-26T05:22:43.194Z,6.96
2022-11-26T05:25:10.794Z,7.04
2022-11-26T05:27:38.123Z,7.01
2022-11-26T05:30:07.343Z,7.05
2022-11-26T05:32:34.999Z,7.06
2022-11-26T05:35:02.338Z,6.85
2022-11-26T05:37:29.643Z,6.70
2022-11-26T05:39:57.185Z,6.89
2022-11-26T05:42:24.502Z,6.89
2022-11-26T05:44:51.982Z,6.91
2022-11-26T05:47:19.600Z,7.00
2022-11-26T05:49:46.898Z,6.83
2022-11-26T05:52:14.261Z,6.98
2022-11-26T05:54:41.947Z,7.23
2022-11-26T05:57:10.763Z,7.08
2022-11-26T05:59:38.066Z,6.90
2022-11-26T06:02:05.889Z,7.08
2022-11-26T06:04:33.612Z,7.03
2022-11-26T06:07:00.882Z,6.90
2022-11-26T06:09:28.186Z,7.03
2022-11-26T06:11:55.795Z,7.03
2022-11-26T06:14:23.141Z,6.91
2022-11-26T06:16:50.543Z,7.08
2022-11-26T06:19:18.265Z,7.07
2022-11-26T06:21:45.873Z,7.00
2022-11-26T06:24:13.148Z,6.91
2022-11-26T06:26:40.783Z,6.94
2022-11-26T06:29:08.115Z,6.93
2022-11-26T06:31:35.515Z,6.99
2022-11-26T06:34:03.218Z,7.11
2022-11-26T06:36:30.565Z,7.11
2022-11-26T06:38:57.877Z,7.20
2022-11-26T06:41:25.454Z,7.24
2022-11-26T06:43:52.762Z,7.10
2022-11-26T06:46:20.191Z,7.22
2022-11-26T06:48:47.857Z,7.26
2022-11-26T06:51:16.264Z,7.22
2022-11-26T06:53:43.651Z,7.09
2022-11-26T06:56:18.019Z,7.14
2022-11-26T06:58:50.193Z,7.16
2022-11-26T07:01:21.245Z,7.19
2022-11-26T07:03:48.642Z,7.34
2022-11-26T07:06:21.061Z,7.31
2022-11-26T07:08:49.286Z,7.53
2022-11-26T07:11:17.553Z,7.50
2022-11-26T07:13:44.886Z,7.47
2022-11-26T07:16:12.754Z,7.73
2022-11-26T07:18:40.225Z,7.80
2022-11-26T07:21:09.891Z,7.57
2022-11-26T07:23:38.482Z,7.64
2022-11-26T07:26:07.383Z,7.53
2022-11-26T07:28:35.483Z,7.37
2022-11-26T07:31:05.124Z,7.55
2022-11-26T07:33:32.701Z,7.51
2022-11-26T07:36:01.389Z,7.44
2022-11-26T07:38:29.265Z,7.43
2022-11-26T07:41:06.437Z,7.60
2022-11-26T07:43:34.994Z,7.51
2022-11-26T07:46:04.343Z,7.75
2022-11-26T07:48:32.402Z,7.96
2022-11-26T07:51:01.149Z,7.83
2022-11-26T07:53:29.816Z,7.80
2022-11-26T07:55:57.431Z,7.70
2022-11-26T07:58:25.274Z,7.76
2022-11-26T08:00:54.810Z,7.84
2022-11-26T08:03:22.734Z,7.96
2022-11-26T08:05:50.109Z,8.12
2022-11-26T08:08:17.522Z,7.78
2022-11-26T08:10:45.155Z,7.68
2022-11-26T08:13:12.487Z,7.70
2022-11-26T08:15:39.790Z,8.02
2022-11-26T08:18:07.401Z,7.98
2022-11-26T08:20:34.721Z,7.91
2022-11-26T08:23:02.058Z,7.63
2022-11-26T08:25:29.678Z,7.38
2022-11-26T08:27:57.282Z,7.55
2022-11-26T08:30:24.618Z,7.63
2022-11-26T08:32:52.197Z,7.61
2022-11-26T08:35:19.528Z,7.58
2022-11-26T08:37:46.822Z,7.56
2022-11-26T08:40:14.583Z,7.69
2022-11-26T08:42:41.925Z,7.71
2022-11-26T08:45:09.497Z,7.71
2022-11-26T08:47:37.351Z,7.72
2022-11-26T08:50:05.586Z,7.69
2022-11-26T08:52:32.885Z,7.63
2022-11-26T08:55:00.489Z,7.72
2022-11-26T08:57:27.921Z,7.88
2022-11-26T08:59:56.068Z,7.86
2022-11-26T09:02:23.690Z,7.95
2022-11-26T09:04:51.072Z,8.20
2022-11-26T09:07:18.520Z,7.97
2022-11-26T09:09:46.242Z,8.22
2022-11-26T09:12:13.551Z,8.06
2022-11-26T09:14:41.858Z,7.65
2022-11-26T09:17:11.465Z,7.48
2022-11-26T09:19:39.316Z,7.59
2022-11-26T09:22:06.635Z,7.38
2022-11-26T09:24:34.343Z,7.48
2022-11-26T09:27:07.479Z,7.80
2022-11-26T09:29:36.086Z,8.00
2022-11-26T09:34:52.589Z,7.89
2022-11-26T09:37:19.939Z,7.69
2022-11-26T09:39:47.370Z,7.88
2022-11-26T09:42:26.623Z,8.02
2022-11-26T09:45:02.956Z,7.93
2022-11-26T09:47:42.013Z,7.89
2022-11-26T09:50:15.318Z,8.15
2022-11-26T09:53:04.389Z,8.22
2022-11-26T09:55:32.579Z,8.39
2022-11-26T09:58:16.357Z,8.60
2022-11-26T10:00:49.392Z,8.73
2022-11-26T10:03:18.328Z,8.63
2022-11-26T10:06:14.508Z,8.80
2022-11-26T10:08:51.413Z,9.11
2022-11-26T10:11:26.012Z,9.46
2022-11-26T10:14:15.573Z,9.42
2022-11-26T10:16:55.218Z,9.52
2022-11-26T10:19:25.154Z,9.63
2022-11-26T10:21:59.821Z,9.50
2022-11-26T10:24:37.061Z,9.66
2022-11-26T10:27:12.606Z,9.76
2022-11-26T10:29:42.502Z,9.87
2022-11-26T10:32:16.427Z,10.17
2022-11-26T10:34:52.492Z,10.02
2022-11-26T10:37:22.195Z,10.06
2022-11-26T10:39:52.917Z,10.08
2022-11-26T10:42:24.486Z,9.96
2022-11-26T10:44:53.293Z,10.02
2022-11-26T10:47:28.887Z,10.18
2022-11-26T10:53:21.289Z,10.26
2022-11-26T10:55:49.068Z,10.42
2022-11-26T10:58:19.810Z,10.31
2022-11-26T11:00:49.943Z,10.04
2022-11-26T11:03:59.342Z,9.94
2022-11-26T11:06:19.742Z,10.21
2022-11-26T11:08:49.468Z,10.60
2022-11-26T11:11:25.412Z,10.43
2022-11-26T11:13:53.554Z,10.32
2022-11-26T11:16:27.671Z,10.40
2022-11-26T11:19:00.904Z,10.39
2022-11-26T11:21:30.902Z,10.27
2022-11-26T11:24:17.246Z,10.44
2022-11-26T11:26:53.503Z,10.57
2022-11-26T11:29:39.462Z,10.56
2022-11-26T11:32:35.676Z,10.51
2022-11-26T11:35:26.151Z,10.50
2022-11-26T11:37:55.250Z,10.51
2022-11-26T11:40:27.396Z,10.51
2022-11-26T11:43:00.196Z,10.34
2022-11-26T11:45:34.897Z,9.84
2022-11-26T11:48:22.133Z,9.76
2022-11-26T11:50:57.017Z,9.55
2022-11-26T11:53:27.211Z,9.55
2022-11-26T11:56:27.259Z,9.17
2022-11-26T11:59:15.775Z,8.94
2022-11-26T12:01:55.243Z,9.15
2022-11-26T12:04:37.791Z,9.38
2022-11-26T12:07:34.629Z,9.57
2022-11-26T12:10:16.845Z,9.76
2022-11-26T12:12:50.831Z,9.94
2022-11-26T12:15:25.437Z,9.45
2022-11-26T12:18:14.123Z,9.84
2022-11-26T12:20:47.824Z,9.88
2022-11-26T12:23:33.378Z,9.12
2022-11-26T12:26:19.889Z,8.78
2022-11-26T12:29:02.270Z,8.95
2022-11-26T12:31:34.353Z,8.64
2022-11-26T12:34:08.717Z,9.23
2022-11-26T12:36:45.776Z,9.41
2022-11-26T12:39:20.497Z,9.40
2022-11-26T12:41:58.878Z,9.31
2022-11-26T12:44:34.639Z,9.29
2022-11-26T12:47:14.510Z,9.64
2022-11-26T12:50:02.090Z,9.83
2022-11-26T12:52:58.961Z,9.87
2022-11-26T12:55:33.313Z,9.67
2022-11-26T12:58:17.348Z,9.87
2022-11-26T13:00:44.754Z,10.12
2022-11-26T13:03:18.323Z,10.20
2022-11-26T13:06:39.423Z,10.10
2022-11-26T13:09:32.474Z,9.93
2022-11-26T13:12:14.175Z,9.88
2022-11-26T13:14:56.705Z,9.84
2022-11-26T13:17:43.087Z,9.64
2022-11-26T13:20:42.109Z,9.46
2022-11-26T13:23:28.390Z,9.82
2022-11-26T13:26:06.195Z,9.80
2022-11-26T13:28:59.738Z,9.76
2022-11-26T13:31:46.161Z,9.92
2022-11-26T13:34:38.916Z,9.42
2022-11-26T13:37:25.565Z,9.72
2022-11-26T13:40:05.453Z,9.72
2022-11-26T13:43:04.021Z,9.68
2022-11-26T13:45:50.061Z,9.78
2022-11-26T13:48:36.535Z,9.57
2022-11-26T13:51:13.754Z,9.64
2022-11-26T13:53:47.490Z,9.65
2022-11-26T13:56:16.154Z,9.78
2022-11-26T13:58:48.757Z,9.98
2022-11-26T14:01:29.517Z,9.91
2022-11-26T14:03:57.701Z,9.54
2022-11-26T14:06:27.981Z,9.72
2022-11-26T14:08:56.073Z,9.34
2022-11-26T14:11:45.843Z,9.26
2022-11-26T14:14:25.221Z,9.67
2022-11-26T14:17:11.667Z,9.42
2022-11-26T14:19:45.214Z,9.44
2022-11-26T14:22:21.891Z,9.24
2022-11-26T14:24:51.917Z,9.54
2022-11-26T14:27:21.877Z,9.33
2022-11-26T14:30:15.401Z,9.49
2022-11-26T14:32:59.825Z,9.61
2022-11-26T14:35:36.036Z,9.45
2022-11-26T14:38:06.188Z,9.69
2022-11-26T14:40:38.210Z,9.51
2022-11-26T14:43:06.994Z,9.59
2022-11-26T14:45:34.622Z,9.77
2022-11-26T14:48:03.910Z,9.54
2022-11-26T14:50:33.443Z,9.53
2022-11-26T14:53:03.755Z,9.42
2022-11-26T14:55:31.885Z,9.41
2022-11-26T14:57:59.303Z,9.10
2022-11-26T15:00:29.449Z,9.26
2022-11-26T15:02:57.216Z,9.31
2022-11-26T15:05:27.371Z,9.08
2022-11-26T15:07:59.580Z,9.33
2022-11-26T15:10:27.454Z,9.53
2022-11-26T15:12:56.430Z,9.68
2022-11-26T15:15:24.526Z,9.71
2022-11-26T15:17:55.096Z,9.63
2022-11-26T15:20:23.311Z,9.68
2022-11-26T15:22:52.314Z,9.46
2022-11-26T15:25:28.331Z,9.53
2022-11-26T15:27:55.917Z,9.46
2022-11-26T15:30:25.551Z,9.54
2022-11-26T15:33:04.320Z,9.69
2022-11-26T15:35:33.276Z,9.79
2022-11-26T15:38:00.676Z,9.74
2022-11-26T15:40:42.606Z,9.69
2022-11-26T15:43:23.439Z,9.49
2022-11-26T15:45:52.139Z,9.30
2022-11-26T15:48:28.092Z,9.23
2022-11-26T15:51:13.257Z,9.11
2022-11-26T15:53:45.857Z,9.01
2022-11-26T15:56:22.020Z,9.16
2022-11-26T15:58:53.112Z,8.94
2022-11-26T16:01:30.420Z,9.10
2022-11-26T16:04:04.320Z,8.91
2022-11-26T16:06:36.133Z,8.77
2022-11-26T16:09:12.597Z,8.87
2022-11-26T16:11:56.868Z,9.10
2022-11-26T16:14:39.897Z,8.99
2022-11-26T16:17:17.167Z,8.96
2022-11-26T16:19:51.057Z,9.10
2022-11-26T16:22:21.682Z,9.02
2022-11-26T16:25:07.529Z,8.92
2022-11-26T16:27:34.888Z,8.91
2022-11-26T16:30:07.555Z,9.06
2022-11-26T16:32:34.813Z,8.97
2022-11-26T16:35:17.432Z,9.00
2022-11-26T16:37:49.593Z,9.02
2022-11-26T16:40:19.165Z,9.15
2022-11-26T16:42:46.920Z,8.97
2022-11-26T16:45:14.790Z,9.02
2022-11-26T16:47:45.040Z,8.78
2022-11-26T16:50:24.361Z,8.85
2022-11-26T16:52:53.041Z,8.72
2022-11-26T16:55:28.155Z,8.88
2022-11-26T16:57:58.422Z,8.77
2022-11-26T17:00:27.083Z,8.68
2022-11-26T17:02:54.806Z,8.71
2022-11-26T17:05:22.991Z,8.51
2022-11-26T17:07:54.919Z,8.67
2022-11-26T17:10:28.513Z,8.86
2022-11-26T17:12:56.455Z,8.97
2022-11-26T17:15:24.131Z,8.83
2022-11-26T17:18:02.218Z,8.65
2022-11-26T17:20:29.774Z,8.56
2022-11-26T17:22:57.070Z,8.51
2022-11-26T17:25:24.440Z,8.60
2022-11-26T17:27:51.997Z,8.30
2022-11-26T17:30:21.586Z,8.46
2022-11-26T17:32:49.534Z,8.43
2022-11-26T17:35:17.650Z,8.57
2022-11-26T17:37:45.338Z,8.68
2022-11-26T17:40:21.350Z,8.55
2022-11-26T17:42:49.832Z,8.47
2022-11-26T17:45:18.136Z,8.51
2022-11-26T17:47:45.915Z,8.57
2022-11-26T17:50:24.636Z,8.69
2022-11-26T17:52:53.107Z,8.69
2022-11-26T17:55:22.738Z,8.39
2022-11-26T17:57:50.328Z,8.70
2022-11-26T18:00:25.708Z,8.93
2022-11-26T18:02:53.397Z,8.92
2022-11-26T18:05:20.859Z,8.88
2022-11-26T18:07:49.846Z,9.01
2022-11-26T18:10:19.790Z,8.71
2022-11-26T18:12:47.783Z,8.78
2022-11-26T18:15:26.165Z,8.88
2022-11-26T18:17:55.569Z,9.00
2022-11-26T18:20:26.003Z,8.97
2022-11-26T18:22:55.152Z,9.02
2022-11-26T18:25:22.807Z,9.18
2022-11-26T18:27:50.238Z,8.91
2022-11-26T18:30:18.138Z,9.20
2022-11-26T18:32:46.125Z,9.36
2022-11-26T18:35:13.443Z,9.42
2022-11-26T18:37:41.334Z,9.51
2022-11-26T18:40:12.307Z,9.46
2022-11-26T18:42:39.682Z,9.47
2022-11-26T18:45:09.226Z,8.98
2022-11-26T18:47:37.531Z,9.42
2022-11-26T18:50:05.756Z,9.38
2022-11-26T18:52:33.709Z,9.23
2022-11-26T18:55:04.595Z,9.29
2022-11-26T18:57:32.229Z,9.30
2022-11-26T18:59:59.833Z,9.46
2022-11-26T19:02:27.209Z,9.36
2022-11-26T19:04:54.617Z,9.52
2022-11-26T19:07:22.294Z,9.62
2022-11-26T19:09:49.771Z,9.43
2022-11-26T19:12:17.058Z,9.51
2022-11-26T19:14:44.664Z,9.62
2022-11-26T19:17:12.412Z,9.53
2022-11-26T19:19:40.102Z,9.76
2022-11-26T19:22:07.831Z,9.71
2022-11-26T19:24:35.119Z,9.77
2022-11-26T19:27:02.374Z,9.93
2022-11-26T19:29:29.903Z,9.94
2022-11-26T19:31:57.248Z,9.99
2022-11-26T19:34:24.543Z,9.92
2022-11-26T19:36:56.554Z,9.82
2022-11-26T19:39:23.930Z,9.84
2022-11-26T19:41:51.710Z,9.89
2022-11-26T19:44:19.059Z,9.91
2022-11-26T19:46:48.094Z,9.94
2022-11-26T19:49:15.746Z,9.94
2022-11-26T19:51:43.423Z,9.88
2022-11-26T19:54:10.832Z,9.96
2022-11-26T19:56:38.509Z,9.99
2022-11-26T19:59:05.898Z,9.88
2022-11-26T20:01:34.267Z,9.92
2022-11-26T20:04:04.631Z,9.77
2022-11-26T20:06:33.744Z,9.85
2022-11-26T20:09:01.550Z,9.75
2022-11-26T20:11:29.304Z,9.86
2022-11-26T20:13:57.483Z,9.69
2022-11-26T20:16:29.336Z,9.70
2022-11-26T20:18:58.185Z,9.63
2022-11-26T20:21:27.758Z,9.60
2022-11-26T20:23:57.539Z,9.61
2022-11-26T20:26:33.763Z,9.78
2022-11-26T20:29:04.552Z,9.82
2022-11-26T20:31:32.770Z,9.80
2022-11-26T20:34:04.042Z,9.99
2022-11-26T20:36:31.929Z,9.84
2022-11-26T20:39:01.492Z,9.97
2022-11-26T20:41:29.717Z,9.89
2022-11-26T20:43:59.390Z,9.99
2022-11-26T20:46:28.083Z,10.05
2022-11-26T20:48:56.373Z,10.12
2022-11-26T20:51:24.722Z,10.22
2022-11-26T20:53:52.594Z,10.15
2022-11-26T20:56:21.449Z,10.13
2022-11-26T20:58:50.565Z,9.97
2022-11-26T21:01:24.860Z,10.00
2022-11-26T21:03:53.407Z,10.02
2022-11-26T21:06:29.070Z,10.14
2022-11-26T21:08:59.697Z,10.22
2022-11-26T21:11:27.253Z,10.34
2022-11-26T21:13:54.695Z,10.19
2022-11-26T21:16:23.351Z,10.31
2022-11-26T21:18:54.115Z,10.04
2022-11-26T21:21:22.724Z,10.24
2022-11-26T21:23:50.113Z,10.19
2022-11-26T21:26:20.658Z,10.22
2022-11-26T21:28:53.799Z,10.19
2022-11-26T21:31:21.610Z,9.99
2022-11-26T21:34:00.927Z,10.14
2022-11-26T21:36:29.849Z,10.10
2022-11-26T21:38:57.687Z,10.15
2022-11-26T21:41:25.471Z,10.24
2022-11-26T21:43:52.880Z,10.18
2022-11-26T21:46:24.672Z,10.18
2022-11-26T21:48:53.441Z,10.11
2022-11-26T21:51:21.941Z,10.20
2022-11-26T21:53:50.036Z,10.12
2022-11-26T21:56:25.337Z,10.34
2022-11-26T21:58:53.185Z,10.36
2022-11-26T22:01:23.414Z,10.16
2022-11-26T22:03:52.850Z,10.04
2022-11-26T22:06:21.724Z,10.00
2022-11-26T22:08:49.639Z,10.11
2022-11-26T22:11:20.484Z,10.00
2022-11-26T22:13:47.843Z,10.13
2022-11-26T22:16:17.051Z,10.16
2022-11-26T22:18:45.555Z,10.17
2022-11-26T22:21:17.110Z,10.27
2022-11-26T22:23:45.494Z,10.09
2022-11-26T22:26:13.584Z,10.15
2022-11-26T22:28:41.231Z,10.10
2022-11-26T22:31:14.359Z,10.34
2022-11-26T22:33:41.760Z,10.19
2022-11-26T22:36:09.391Z,10.31
2022-11-26T22:38:37.886Z,9.81
2022-11-26T22:41:07.629Z,10.10
2022-11-26T22:43:35.542Z,10.19
2022-11-26T22:46:07.861Z,10.06
2022-11-26T22:48:35.793Z,10.12
2022-11-26T22:51:03.420Z,10.17
2022-11-26T22:53:33.214Z,10.10
2022-11-26T22:56:02.911Z,10.24
2022-11-26T22:58:31.163Z,10.23
2022-11-26T23:01:04.393Z,10.23
2022-11-26T23:03:34.189Z,10.33
2022-11-26T23:06:08.571Z,10.21
2022-11-26T23:08:36.926Z,10.13
2022-11-26T23:11:25.371Z,10.08
2022-11-26T23:13:53.486Z,10.24
2022-11-26T23:16:23.149Z,10.10
2022-11-26T23:18:51.421Z,10.29
2022-11-26T23:21:27.591Z,10.00
2022-11-26T23:23:55.169Z,10.20
2022-11-26T23:26:27.399Z,9.98
2022-11-26T23:28:59.172Z,10.09
2022-11-26T23:31:28.896Z,10.10
2022-11-26T23:33:56.506Z,10.17
2022-11-26T23:36:24.576Z,9.95
2022-11-26T23:38:52.617Z,10.11
2022-11-26T23:41:19.965Z,10.20
2022-11-26T23:43:47.603Z,10.30
2022-11-26T23:46:26.907Z,10.40
2022-11-26T23:48:54.771Z,10.27
2022-11-26T23:51:29.385Z,10.19
2022-11-26T23:53:56.714Z,10.33
2022-11-26T23:56:27.622Z,10.20
2022-11-26T23:58:59.072Z,10.14
